sensor_id;sensor_type;location;lat;lon;timestamp;pressure;altitude;pressure_sealevel;temperature;humidity
5883;BME280;2967;51.488;6.618;2023-04-24T00:04:59;99786.84;;;12.83;100.00
5883;BME280;2967;51.488;6.618;2023-04-24T00:10:05;99758.91;;;12.69;100.00
5883;BME280;2967;51.488;6.618;2023-04-24T00:15:09;99770.06;;;12.54;100.00
5883;BME280;2967;51.488;6.618;2023-04-24T00:20:13;99784.53;;;12.50;100.00
5883;BME280;2967;51.488;6.618;2023-04-24T00:25:17;99784.13;;;12.45;100.00
5883;BME280;2967;51.488;6.618;2023-04-24T00:30:19;99783.31;;;12.54;100.00
5883;BME280;2967;51.488;6.618;2023-04-24T00:35:23;99789.94;;;12.39;100.00
5883;BME280;2967;51.488;6.618;2023-04-24T00:40:26;99801.13;;;12.33;100.00
5883;BME280;2967;51.488;6.618;2023-04-24T00:45:29;99785.44;;;12.20;100.00
5883;BME280;2967;51.488;6.618;2023-04-24T00:50:35;99780.63;;;12.05;100.00
5883;BME280;2967;51.488;6.618;2023-04-24T00:55:38;99785.03;;;11.95;100.00
5883;BME280;2967;51.488;6.618;2023-04-24T01:00:41;99786.91;;;11.83;100.00
5883;BME280;2967;51.488;6.618;2023-04-24T01:05:45;99784.34;;;11.72;100.00
5883;BME280;2967;51.488;6.618;2023-04-24T01:10:49;99782.47;;;11.84;100.00
5883;BME280;2967;51.488;6.618;2023-04-24T01:15:53;99786.50;;;12.08;100.00
5883;BME280;2967;51.488;6.618;2023-04-24T01:20:59;99778.59;;;11.88;100.00
5883;BME280;2967;51.488;6.618;2023-04-24T01:26:03;99785.03;;;11.95;100.00
5883;BME280;2967;51.488;6.618;2023-04-24T01:31:06;99787.50;;;11.87;100.00
5883;BME280;2967;51.488;6.618;2023-04-24T01:36:10;99790.03;;;11.88;100.00
5883;BME280;2967;51.488;6.618;2023-04-24T01:41:15;99799.28;;;11.73;100.00
5883;BME280;2967;51.488;6.618;2023-04-24T01:46:19;99786.22;;;11.61;100.00
5883;BME280;2967;51.488;6.618;2023-04-24T01:51:21;99781.72;;;11.72;100.00
5883;BME280;2967;51.488;6.618;2023-04-24T01:56:28;99784.78;;;11.77;100.00
5883;BME280;2967;51.488;6.618;2023-04-24T02:01:35;99687.53;;;11.38;100.00
5883;BME280;2967;51.488;6.618;2023-04-24T02:06:39;99785.78;;;12.06;100.00
5883;BME280;2967;51.488;6.618;2023-04-24T02:11:43;99786.66;;;12.16;100.00
5883;BME280;2967;51.488;6.618;2023-04-24T02:16:46;99789.69;;;11.82;100.00
5883;BME280;2967;51.488;6.618;2023-04-24T02:21:48;99795.44;;;11.87;100.00
5883;BME280;2967;51.488;6.618;2023-04-24T02:26:53;99785.66;;;11.46;100.00
5883;BME280;2967;51.488;6.618;2023-04-24T02:31:56;99789.66;;;11.72;100.00
5883;BME280;2967;51.488;6.618;2023-04-24T02:36:59;99787.31;;;11.79;100.00
5883;BME280;2967;51.488;6.618;2023-04-24T02:42:03;99784.72;;;11.47;100.00
5883;BME280;2967;51.488;6.618;2023-04-24T02:47:05;99786.53;;;11.67;100.00
5883;BME280;2967;51.488;6.618;2023-04-24T02:52:08;99782.09;;;11.88;100.00
5883;BME280;2967;51.488;6.618;2023-04-24T02:57:13;99793.06;;;11.63;100.00
5883;BME280;2967;51.488;6.618;2023-04-24T03:02:16;99798.78;;;11.48;100.00
5883;BME280;2967;51.488;6.618;2023-04-24T03:07:19;99803.59;;;11.74;100.00
5883;BME280;2967;51.488;6.618;2023-04-24T03:12:23;99803.59;;;11.74;100.00
5883;BME280;2967;51.488;6.618;2023-04-24T03:17:26;99807.59;;;11.89;100.00
5883;BME280;2967;51.488;6.618;2023-04-24T03:22:29;99816.38;;;11.90;100.00
5883;BME280;2967;51.488;6.618;2023-04-24T03:27:36;99809.94;;;11.62;100.00
5883;BME280;2967;51.488;6.618;2023-04-24T03:32:45;99818.34;;;11.56;100.00
5883;BME280;2967;51.488;6.618;2023-04-24T03:37:53;99815.81;;;11.66;100.00
5883;BME280;2967;51.488;6.618;2023-04-24T03:43:16;99804.75;;;11.61;100.00
5883;BME280;2967;51.488;6.618;2023-04-24T03:48:20;99809.59;;;11.76;100.00
5883;BME280;2967;51.488;6.618;2023-04-24T03:53:23;99813.03;;;11.67;100.00
5883;BME280;2967;51.488;6.618;2023-04-24T03:58:27;99817.03;;;11.82;100.00
5883;BME280;2967;51.488;6.618;2023-04-24T04:03:30;99815.06;;;11.75;100.00
5883;BME280;2967;51.488;6.618;2023-04-24T04:08:34;99816.25;;;11.71;100.00
5883;BME280;2967;51.488;6.618;2023-04-24T04:13:38;99828.16;;;11.76;100.00
5883;BME280;2967;51.488;6.618;2023-04-24T04:18:41;99822.84;;;11.76;100.00
5883;BME280;2967;51.488;6.618;2023-04-24T04:23:44;99821.31;;;11.74;100.00
5883;BME280;2967;51.488;6.618;2023-04-24T04:28:59;99821.81;;;11.68;100.00
5883;BME280;2967;51.488;6.618;2023-04-24T04:34:03;99823.63;;;11.67;100.00
5883;BME280;2967;51.488;6.618;2023-04-24T04:39:07;99824.16;;;11.61;100.00
5883;BME280;2967;51.488;6.618;2023-04-24T04:44:35;99837.16;;;11.53;100.00
5883;BME280;2967;51.488;6.618;2023-04-24T04:49:41;99833.31;;;11.57;100.00
5883;BME280;2967;51.488;6.618;2023-04-24T04:54:52;99846.94;;;11.53;100.00
5883;BME280;2967;51.488;6.618;2023-04-24T04:59:59;99841.38;;;11.76;100.00
5883;BME280;2967;51.488;6.618;2023-04-24T05:05:14;99843.66;;;11.60;100.00
5883;BME280;2967;51.488;6.618;2023-04-24T05:10:19;99855.44;;;11.56;100.00
5883;BME280;2967;51.488;6.618;2023-04-24T05:15:25;99855.06;;;11.40;100.00
5883;BME280;2967;51.488;6.618;2023-04-24T05:20:28;99855.69;;;11.53;100.00
5883;BME280;2967;51.488;6.618;2023-04-24T05:25:30;99839.28;;;11.39;100.00
5883;BME280;2967;51.488;6.618;2023-04-24T05:30:43;99856.22;;;11.47;100.00
5883;BME280;2967;51.488;6.618;2023-04-24T05:35:47;99852.22;;;11.21;100.00
5883;BME280;2967;51.488;6.618;2023-04-24T05:40:51;99853.53;;;11.27;100.00
5883;BME280;2967;51.488;6.618;2023-04-24T05:45:55;99852.56;;;11.28;100.00
5883;BME280;2967;51.488;6.618;2023-04-24T05:50:58;99855.75;;;11.42;100.00
5883;BME280;2967;51.488;6.618;2023-04-24T05:56:01;99863.13;;;11.07;100.00
5883;BME280;2967;51.488;6.618;2023-04-24T06:01:05;99860.09;;;11.01;100.00
5883;BME280;2967;51.488;6.618;2023-04-24T06:06:08;99855.19;;;11.07;100.00
5883;BME280;2967;51.488;6.618;2023-04-24T06:11:11;99860.56;;;11.17;100.00
5883;BME280;2967;51.488;6.618;2023-04-24T06:16:15;99867.53;;;11.18;100.00
5883;BME280;2967;51.488;6.618;2023-04-24T06:21:24;99856.47;;;11.13;100.00
5883;BME280;2967;51.488;6.618;2023-04-24T06:26:27;99781.81;;;10.67;100.00
5883;BME280;2967;51.488;6.618;2023-04-24T06:31:31;99863.31;;;11.15;100.00
5883;BME280;2967;51.488;6.618;2023-04-24T06:36:38;99866.94;;;11.14;100.00
5883;BME280;2967;51.488;6.618;2023-04-24T06:41:41;99851.59;;;10.86;100.00
5883;BME280;2967;51.488;6.618;2023-04-24T06:46:54;99867.97;;;10.91;100.00
5883;BME280;2967;51.488;6.618;2023-04-24T06:51:56;99863.13;;;10.96;100.00
5883;BME280;2967;51.488;6.618;2023-04-24T06:57:00;99858.69;;;10.97;100.00
5883;BME280;2967;51.488;6.618;2023-04-24T07:02:05;99862.44;;;10.83;100.00
5883;BME280;2967;51.488;6.618;2023-04-24T07:07:08;99867.34;;;10.99;100.00
5883;BME280;2967;51.488;6.618;2023-04-24T07:12:14;99869.69;;;10.59;100.00
5883;BME280;2967;51.488;6.618;2023-04-24T07:17:19;99874.97;;;10.70;100.00
5883;BME280;2967;51.488;6.618;2023-04-24T07:22:22;99867.75;;;10.61;100.00
5883;BME280;2967;51.488;6.618;2023-04-24T07:27:25;99865.84;;;10.31;100.00
5883;BME280;2967;51.488;6.618;2023-04-24T07:32:29;99806.94;;;9.85;100.00
5883;BME280;2967;51.488;6.618;2023-04-24T07:37:32;99874.25;;;10.14;100.00
5883;BME280;2967;51.488;6.618;2023-04-24T07:42:36;99877.84;;;10.24;100.00
5883;BME280;2967;51.488;6.618;2023-04-24T07:47:43;99885.81;;;9.89;100.00
5883;BME280;2967;51.488;6.618;2023-04-24T07:52:47;99892.03;;;10.23;100.00
5883;BME280;2967;51.488;6.618;2023-04-24T07:57:49;99908.88;;;10.43;100.00
5883;BME280;2967;51.488;6.618;2023-04-24T08:02:53;99899.97;;;10.34;100.00
5883;BME280;2967;51.488;6.618;2023-04-24T08:07:56;99924.72;;;10.54;100.00
5883;BME280;2967;51.488;6.618;2023-04-24T08:12:58;99916.94;;;10.53;100.00
5883;BME280;2967;51.488;6.618;2023-04-24T08:18:03;99949.81;;;10.27;100.00
5883;BME280;2967;51.488;6.618;2023-04-24T08:23:06;99966.06;;;10.44;100.00
5883;BME280;2967;51.488;6.618;2023-04-24T08:28:09;99979.28;;;10.55;100.00
5883;BME280;2967;51.488;6.618;2023-04-24T08:33:13;99986.41;;;10.66;100.00
5883;BME280;2967;51.488;6.618;2023-04-24T08:38:16;100002.53;;;10.63;100.00
5883;BME280;2967;51.488;6.618;2023-04-24T08:43:21;100014.78;;;10.86;100.00
5883;BME280;2967;51.488;6.618;2023-04-24T08:48:26;100022.13;;;10.71;100.00
5883;BME280;2967;51.488;6.618;2023-04-24T08:53:33;100045.53;;;10.54;100.00
5883;BME280;2967;51.488;6.618;2023-04-24T08:58:35;99980.53;;;9.83;100.00
5883;BME280;2967;51.488;6.618;2023-04-24T09:03:40;100071.03;;;10.21;100.00
5883;BME280;2967;51.488;6.618;2023-04-24T09:08:43;100055.50;;;9.93;100.00
5883;BME280;2967;51.488;6.618;2023-04-24T09:13:48;100120.22;;;10.11;100.00
5883;BME280;2967;51.488;6.618;2023-04-24T09:18:52;100131.19;;;10.17;100.00
5883;BME280;2967;51.488;6.618;2023-04-24T09:23:58;100059.75;;;9.59;100.00
5883;BME280;2967;51.488;6.618;2023-04-24T09:29:03;100165.94;;;10.24;100.00
5883;BME280;2967;51.488;6.618;2023-04-24T09:34:07;100178.75;;;10.17;100.00
5883;BME280;2967;51.488;6.618;2023-04-24T09:39:12;100196.06;;;10.21;100.00
5883;BME280;2967;51.488;6.618;2023-04-24T09:44:17;100203.63;;;10.38;100.00
5883;BME280;2967;51.488;6.618;2023-04-24T09:49:25;100216.50;;;10.43;100.00
5883;BME280;2967;51.488;6.618;2023-04-24T09:54:28;100221.00;;;10.30;100.00
5883;BME280;2967;51.488;6.618;2023-04-24T09:59:32;100244.22;;;10.37;100.00
5883;BME280;2967;51.488;6.618;2023-04-24T10:04:39;100246.63;;;10.40;100.00
5883;BME280;2967;51.488;6.618;2023-04-24T10:09:42;100265.78;;;10.43;100.00
5883;BME280;2967;51.488;6.618;2023-04-24T10:14:45;100281.41;;;10.46;100.00
5883;BME280;2967;51.488;6.618;2023-04-24T10:19:51;100279.28;;;10.51;100.00
5883;BME280;2967;51.488;6.618;2023-04-24T10:24:54;100290.44;;;10.44;100.00
5883;BME280;2967;51.488;6.618;2023-04-24T10:29:57;100286.09;;;10.43;100.00
5883;BME280;2967;51.488;6.618;2023-04-24T10:35:01;100301.72;;;10.46;100.00
5883;BME280;2967;51.488;6.618;2023-04-24T10:40:06;100311.59;;;10.44;100.00
5883;BME280;2967;51.488;6.618;2023-04-24T10:45:16;100311.97;;;10.50;100.00
5883;BME280;2967;51.488;6.618;2023-04-24T10:50:21;100321.09;;;10.70;100.00
5883;BME280;2967;51.488;6.618;2023-04-24T10:55:44;100313.19;;;10.93;100.00
5883;BME280;2967;51.488;6.618;2023-04-24T11:00:56;100323.34;;;10.99;100.00
5883;BME280;2967;51.488;6.618;2023-04-24T11:06:02;100342.78;;;11.22;100.00
5883;BME280;2967;51.488;6.618;2023-04-24T11:11:10;100339.25;;;11.34;100.00
5883;BME280;2967;51.488;6.618;2023-04-24T11:16:15;100367.66;;;11.08;100.00
5883;BME280;2967;51.488;6.618;2023-04-24T11:21:19;100373.38;;;10.66;100.00
5883;BME280;2967;51.488;6.618;2023-04-24T11:26:22;100372.03;;;10.61;100.00
5883;BME280;2967;51.488;6.618;2023-04-24T11:31:36;100378.53;;;10.80;100.00
5883;BME280;2967;51.488;6.618;2023-04-24T11:36:42;100364.28;;;10.70;100.00
5883;BME280;2967;51.488;6.618;2023-04-24T11:41:46;100355.41;;;10.71;100.00
5883;BME280;2967;51.488;6.618;2023-04-24T11:46:49;100398.50;;;10.97;100.00
5883;BME280;2967;51.488;6.618;2023-04-24T11:51:56;100408.00;;;10.99;100.00
5883;BME280;2967;51.488;6.618;2023-04-24T11:57:04;100420.72;;;10.94;100.00
5883;BME280;2967;51.488;6.618;2023-04-24T12:02:08;100420.53;;;10.97;100.00
5883;BME280;2967;51.488;6.618;2023-04-24T12:07:12;100441.59;;;10.86;100.00
5883;BME280;2967;51.488;6.618;2023-04-24T12:12:16;100455.28;;;10.80;100.00
5883;BME280;2967;51.488;6.618;2023-04-24T12:17:24;100458.13;;;10.77;100.00
5883;BME280;2967;51.488;6.618;2023-04-24T12:22:44;100468.34;;;10.94;100.00
5883;BME280;2967;51.488;6.618;2023-04-24T12:27:53;100474.50;;;10.95;100.00
5883;BME280;2967;51.488;6.618;2023-04-24T12:32:57;100466.88;;;10.90;100.00
5883;BME280;2967;51.488;6.618;2023-04-24T12:38:09;100469.25;;;11.18;100.00
5883;BME280;2967;51.488;6.618;2023-04-24T12:43:16;100466.44;;;11.32;100.00
5883;BME280;2967;51.488;6.618;2023-04-24T12:48:19;100483.63;;;11.27;100.00
5883;BME280;2967;51.488;6.618;2023-04-24T12:53:26;100473.13;;;11.25;100.00
5883;BME280;2967;51.488;6.618;2023-04-24T12:58:32;100495.50;;;11.21;100.00
5883;BME280;2967;51.488;6.618;2023-04-24T13:03:35;100506.50;;;11.15;100.00
5883;BME280;2967;51.488;6.618;2023-04-24T13:08:39;100511.63;;;11.18;100.00
5883;BME280;2967;51.488;6.618;2023-04-24T13:13:41;100514.28;;;11.06;100.00
5883;BME280;2967;51.488;6.618;2023-04-24T13:18:44;100513.22;;;11.08;100.00
5883;BME280;2967;51.488;6.618;2023-04-24T13:23:48;100489.75;;;10.79;100.00
5883;BME280;2967;51.488;6.618;2023-04-24T13:28:51;100519.25;;;11.10;100.00
5883;BME280;2967;51.488;6.618;2023-04-24T13:33:54;100523.03;;;11.19;100.00
5883;BME280;2967;51.488;6.618;2023-04-24T13:38:57;100517.81;;;11.30;100.00
5883;BME280;2967;51.488;6.618;2023-04-24T13:44:00;100513.75;;;11.49;100.00
5883;BME280;2967;51.488;6.618;2023-04-24T13:49:03;100515.91;;;11.68;100.00
5883;BME280;2967;51.488;6.618;2023-04-24T13:54:07;100506.84;;;11.59;100.00
5883;BME280;2967;51.488;6.618;2023-04-24T13:59:12;100510.63;;;11.55;100.00
5883;BME280;2967;51.488;6.618;2023-04-24T14:04:14;100505.47;;;11.54;100.00
5883;BME280;2967;51.488;6.618;2023-04-24T14:09:20;100514.09;;;11.32;100.00
5883;BME280;2967;51.488;6.618;2023-04-24T14:14:22;100517.63;;;11.33;100.00
5883;BME280;2967;51.488;6.618;2023-04-24T14:19:26;100534.97;;;11.24;100.00
5883;BME280;2967;51.488;6.618;2023-04-24T14:24:30;100529.44;;;11.04;100.00
5883;BME280;2967;51.488;6.618;2023-04-24T14:29:32;100454.13;;;10.35;100.00
5883;BME280;2967;51.488;6.618;2023-04-24T14:34:35;100551.97;;;10.84;100.00
5883;BME280;2967;51.488;6.618;2023-04-24T14:39:40;100553.25;;;10.79;100.00
5883;BME280;2967;51.488;6.618;2023-04-24T14:44:48;100565.53;;;10.92;100.00
5883;BME280;2967;51.488;6.618;2023-04-24T14:49:50;100549.34;;;10.97;100.00
5883;BME280;2967;51.488;6.618;2023-04-24T14:54:55;100550.69;;;11.15;100.00
5883;BME280;2967;51.488;6.618;2023-04-24T14:59:57;100564.09;;;11.37;100.00
5883;BME280;2967;51.488;6.618;2023-04-24T15:05:00;100568.97;;;11.79;100.00
5883;BME280;2967;51.488;6.618;2023-04-24T15:10:05;100569.81;;;11.79;100.00
5883;BME280;2967;51.488;6.618;2023-04-24T15:15:08;100575.25;;;11.65;100.00
5883;BME280;2967;51.488;6.618;2023-04-24T15:20:11;100568.16;;;11.53;100.00
5883;BME280;2967;51.488;6.618;2023-04-24T15:25:15;100582.78;;;11.71;100.00
5883;BME280;2967;51.488;6.618;2023-04-24T15:30:18;100585.56;;;11.57;100.00
5883;BME280;2967;51.488;6.618;2023-04-24T15:35:20;100582.38;;;11.52;100.00
5883;BME280;2967;51.488;6.618;2023-04-24T15:40:24;100584.47;;;11.72;100.00
5883;BME280;2967;51.488;6.618;2023-04-24T15:45:27;100580.88;;;11.61;100.00
5883;BME280;2967;51.488;6.618;2023-04-24T15:50:30;100530.06;;;11.43;100.00
5883;BME280;2967;51.488;6.618;2023-04-24T15:55:34;100547.31;;;11.61;100.00
5883;BME280;2967;51.488;6.618;2023-04-24T16:00:38;100580.78;;;11.62;100.00
5883;BME280;2967;51.488;6.618;2023-04-24T16:05:41;100573.81;;;11.61;100.00
5883;BME280;2967;51.488;6.618;2023-04-24T16:10:45;100582.16;;;11.55;100.00
5883;BME280;2967;51.488;6.618;2023-04-24T16:15:47;100596.75;;;11.73;100.00
5883;BME280;2967;51.488;6.618;2023-04-24T16:20:50;100575.38;;;11.51;100.00
5883;BME280;2967;51.488;6.618;2023-04-24T16:25:54;100589.50;;;11.39;100.00
5883;BME280;2967;51.488;6.618;2023-04-24T16:30:57;100597.38;;;11.28;100.00
5883;BME280;2967;51.488;6.618;2023-04-24T16:36:00;100628.59;;;11.23;100.00
5883;BME280;2967;51.488;6.618;2023-04-24T16:41:07;100621.19;;;10.91;100.00
5883;BME280;2967;51.488;6.618;2023-04-24T16:46:10;100546.47;;;10.50;100.00
5883;BME280;2967;51.488;6.618;2023-04-24T16:51:13;100611.88;;;10.85;100.00
5883;BME280;2967;51.488;6.618;2023-04-24T16:56:17;100624.91;;;11.01;100.00
5883;BME280;2967;51.488;6.618;2023-04-24T17:01:20;100604.16;;;10.82;100.00
5883;BME280;2967;51.488;6.618;2023-04-24T17:06:22;100589.34;;;10.67;100.00
5883;BME280;2967;51.488;6.618;2023-04-24T17:11:27;100620.69;;;10.98;100.00
5883;BME280;2967;51.488;6.618;2023-04-24T17:16:31;100619.63;;;11.13;100.00
5883;BME280;2967;51.488;6.618;2023-04-24T17:21:35;100621.72;;;11.21;100.00
5883;BME280;2967;51.488;6.618;2023-04-24T17:26:39;100619.63;;;11.26;100.00
5883;BME280;2967;51.488;6.618;2023-04-24T17:31:41;100624.16;;;11.24;100.00
5883;BME280;2967;51.488;6.618;2023-04-24T17:36:44;100616.31;;;11.22;100.00
5883;BME280;2967;51.488;6.618;2023-04-24T17:41:48;100627.00;;;11.21;100.00
5883;BME280;2967;51.488;6.618;2023-04-24T17:46:51;100622.91;;;11.17;100.00
5883;BME280;2967;51.488;6.618;2023-04-24T17:51:53;100636.03;;;11.18;100.00
5883;BME280;2967;51.488;6.618;2023-04-24T17:56:57;100640.06;;;11.11;100.00
5883;BME280;2967;51.488;6.618;2023-04-24T18:02:00;100632.53;;;10.93;100.00
5883;BME280;2967;51.488;6.618;2023-04-24T18:07:02;100645.78;;;10.93;100.00
5883;BME280;2967;51.488;6.618;2023-04-24T18:12:06;100640.81;;;10.88;100.00
5883;BME280;2967;51.488;6.618;2023-04-24T18:17:09;100544.16;;;10.33;100.00
5883;BME280;2967;51.488;6.618;2023-04-24T18:22:12;100647.25;;;10.97;100.00
5883;BME280;2967;51.488;6.618;2023-04-24T18:27:16;100646.50;;;10.95;100.00
5883;BME280;2967;51.488;6.618;2023-04-24T18:32:19;100642.91;;;10.96;100.00
5883;BME280;2967;51.488;6.618;2023-04-24T18:37:22;100655.59;;;10.91;100.00
5883;BME280;2967;51.488;6.618;2023-04-24T18:42:26;100664.41;;;10.91;100.00
5883;BME280;2967;51.488;6.618;2023-04-24T18:47:29;100671.38;;;10.92;100.00
5883;BME280;2967;51.488;6.618;2023-04-24T18:52:32;100600.41;;;10.35;100.00
5883;BME280;2967;51.488;6.618;2023-04-24T18:57:36;100673.47;;;10.75;100.00
5883;BME280;2967;51.488;6.618;2023-04-24T19:02:39;100674.53;;;10.72;100.00
5883;BME280;2967;51.488;6.618;2023-04-24T19:07:42;100692.94;;;10.74;100.00
5883;BME280;2967;51.488;6.618;2023-04-24T19:12:46;100697.16;;;10.76;100.00
5883;BME280;2967;51.488;6.618;2023-04-24T19:17:49;100692.09;;;10.73;100.00
5883;BME280;2967;51.488;6.618;2023-04-24T19:22:53;100698.44;;;10.71;100.00
5883;BME280;2967;51.488;6.618;2023-04-24T19:27:57;100703.84;;;10.69;100.00
5883;BME280;2967;51.488;6.618;2023-04-24T19:32:59;100714.22;;;10.72;100.00
5883;BME280;2967;51.488;6.618;2023-04-24T19:38:03;100716.84;;;10.72;100.00
5883;BME280;2967;51.488;6.618;2023-04-24T19:43:07;100710.47;;;10.62;100.00
5883;BME280;2967;51.488;6.618;2023-04-24T19:48:10;100725.59;;;10.60;100.00
5883;BME280;2967;51.488;6.618;2023-04-24T19:53:13;100701.38;;;10.28;100.00
5883;BME280;2967;51.488;6.618;2023-04-24T19:58:17;100730.00;;;10.48;100.00
5883;BME280;2967;51.488;6.618;2023-04-24T20:03:20;100729.16;;;10.47;100.00
5883;BME280;2967;51.488;6.618;2023-04-24T20:08:34;100728.59;;;10.42;100.00
5883;BME280;2967;51.488;6.618;2023-04-24T20:13:40;100732.47;;;10.37;100.00
5883;BME280;2967;51.488;6.618;2023-04-24T20:18:43;100727.47;;;10.32;100.00
5883;BME280;2967;51.488;6.618;2023-04-24T20:23:46;100731.84;;;10.33;100.00
5883;BME280;2967;51.488;6.618;2023-04-24T20:28:50;100729.16;;;10.07;100.00
5883;BME280;2967;51.488;6.618;2023-04-24T20:33:53;100724.94;;;10.04;100.00
5883;BME280;2967;51.488;6.618;2023-04-24T20:38:56;100730.47;;;10.00;100.00
5883;BME280;2967;51.488;6.618;2023-04-24T20:44:01;100727.38;;;9.93;100.00
5883;BME280;2967;51.488;6.618;2023-04-24T20:49:04;100712.84;;;9.86;100.00
5883;BME280;2967;51.488;6.618;2023-04-24T20:54:07;100698.63;;;9.61;100.00
5883;BME280;2967;51.488;6.618;2023-04-24T20:59:11;100719.56;;;9.50;100.00
5883;BME280;2967;51.488;6.618;2023-04-24T21:04:14;100725.69;;;9.50;100.00
5883;BME280;2967;51.488;6.618;2023-04-24T21:09:17;100727.59;;;9.62;100.00
5883;BME280;2967;51.488;6.618;2023-04-24T21:14:21;100731.66;;;9.68;100.00
5883;BME280;2967;51.488;6.618;2023-04-24T21:19:24;100731.81;;;9.65;100.00
5883;BME280;2967;51.488;6.618;2023-04-24T21:24:26;100726.53;;;9.65;100.00
5883;BME280;2967;51.488;6.618;2023-04-24T21:29:31;100713.81;;;9.57;100.00
5883;BME280;2967;51.488;6.618;2023-04-24T21:34:33;100676.97;;;9.28;100.00
5883;BME280;2967;51.488;6.618;2023-04-24T21:39:36;100728.69;;;9.58;100.00
5883;BME280;2967;51.488;6.618;2023-04-24T21:44:40;100722.75;;;9.55;100.00
5883;BME280;2967;51.488;6.618;2023-04-24T21:49:43;100669.94;;;9.27;100.00
5883;BME280;2967;51.488;6.618;2023-04-24T21:54:45;100717.09;;;9.47;100.00
5883;BME280;2967;51.488;6.618;2023-04-24T21:59:49;100706.94;;;9.41;100.00
5883;BME280;2967;51.488;6.618;2023-04-24T22:04:52;100717.84;;;9.35;100.00
5883;BME280;2967;51.488;6.618;2023-04-24T22:09:56;100717.09;;;9.33;100.00
5883;BME280;2967;51.488;6.618;2023-04-24T22:15:00;100726.25;;;9.41;100.00
5883;BME280;2967;51.488;6.618;2023-04-24T22:20:05;100722.75;;;9.27;100.00
5883;BME280;2967;51.488;6.618;2023-04-24T22:25:08;100729.06;;;9.24;100.00
5883;BME280;2967;51.488;6.618;2023-04-24T22:30:13;100738.00;;;9.22;100.00
5883;BME280;2967;51.488;6.618;2023-04-24T22:35:15;100727.66;;;9.19;100.00
5883;BME280;2967;51.488;6.618;2023-04-24T22:40:19;100729.56;;;9.01;100.00
5883;BME280;2967;51.488;6.618;2023-04-24T22:45:23;100725.09;;;9.17;100.00
5883;BME280;2967;51.488;6.618;2023-04-24T22:50:26;100723.47;;;9.15;100.00
5883;BME280;2967;51.488;6.618;2023-04-24T22:55:29;100723.66;;;9.12;100.00
5883;BME280;2967;51.488;6.618;2023-04-24T23:00:34;100724.22;;;9.17;100.00
5883;BME280;2967;51.488;6.618;2023-04-24T23:05:36;100725.38;;;9.13;100.00
5883;BME280;2967;51.488;6.618;2023-04-24T23:10:39;100726.13;;;9.15;100.00
5883;BME280;2967;51.488;6.618;2023-04-24T23:15:44;100726.31;;;9.12;100.00
5883;BME280;2967;51.488;6.618;2023-04-24T23:20:46;100731.41;;;9.15;100.00
5883;BME280;2967;51.488;6.618;2023-04-24T23:25:49;100730.50;;;9.00;100.00
5883;BME280;2967;51.488;6.618;2023-04-24T23:30:53;100732.44;;;9.12;100.00
5883;BME280;2967;51.488;6.618;2023-04-24T23:35:56;100735.91;;;9.13;100.00
5883;BME280;2967;51.488;6.618;2023-04-24T23:40:59;100738.38;;;9.16;100.00
5883;BME280;2967;51.488;6.618;2023-04-24T23:46:03;100728.34;;;9.07;100.00
5883;BME280;2967;51.488;6.618;2023-04-24T23:51:06;100729.97;;;9.09;100.00
5883;BME280;2967;51.488;6.618;2023-04-24T23:56:09;100712.16;;;8.99;100.00
